Al Hoceima, Morocco

9:40 AM WEST on July 13, 2014 (GMT +0100)
Melilla (GEML) Elev 180 ft | 35.28 °N, 2.96 °W | Change Station

Current weather conditions updated 10 minutes ago

Scattered Clouds
Scattered Clouds
77 °F
Feels Like 77 °F
N
4
Wind Variable Wind from ENE

Today is forecast to be Cooler than yesterday.

Today
High -- | Low -- °F
--% Chance of Precip.
Yesterday
High -- | Low -- °F
Precip. -- in
6:10 AM 8:31 PM
Full, 99% visible
Pressure 30.04 in
Visibility 5.0 miles
Clouds Few 400 ft
Scattered Clouds 900 ft
Dew Point 72 °F
Humidity 83%
Rainfall 0.00 in
Snow Depth Not available.
UV 4 out of 12
Pollen Not available.
Air Quality Not available.
Flu Activity Not available.
METAR GEML 130830Z 06003KT 360V120 8000 FEW004 SCT009 25/22 Q1017

More Conditions Fewer Conditions

Pressure 30.04 in
Visibility 5.0 miles
Clouds Few 400 ft
Scattered Clouds 900 ft
Dew Point 72 °F
Humidity 83%
Rainfall 0.00 in
Snow Depth Not available.
UV 4 out of 12
Pollen Not available.
Air Quality Not available.
Flu Activity Not available.
METAR GEML 130830Z 06003KT 360V120 8000 FEW004 SCT009 25/22 Q1017

More Conditions Fewer Conditions

10-Day Weather Forecast

Almanac

Astronomy

Jul. 13, 2014 Rise Set
Actual Time 6:10 AM WEST 8:31 PM WEST
Civil Twilight 5:41 AM WEST 9:00 PM WEST
Nautical Twilight 5:05 AM WEST 9:35 PM WEST
Astronomical Twilight 4:26 AM WEST 10:15 PM WEST
Moon 9:14 PM WEST 7:19 AM WEST
Length of Visible Light 15h 18m
Length of Day
14h 20m
Tomorrow will be 1m 3s shorter.
Full, 99% of the Moon is Illuminated
Today
Full
Jul 18
Last Quarter
Jul 26
New
Aug 3
First Quarter
Aug 10
Full

Yesterday's Extremes

Country Highs Country Lows

Community

WunderPhotos

Upload Photos

1,733,143 photos uploaded!

Nearby

Snow Depth

Not available.

Earthquake Activity

City Distance Mag. Time & Date
No recent earthquake activity has been reported nearby.
Minimum magnitude displayed is 2.5.

Coastal Water Temperatures

Place Temperature
No Stations Reporting

Nearby Weather Stations

There are no personal weather stations in this area.